createdAt,value
2022-10-20T00:00:21.205Z,15.93
2022-10-20T00:02:48.104Z,15.95
2022-10-20T00:05:15.108Z,15.91
2022-10-20T00:07:41.914Z,15.84
2022-10-20T00:10:09.234Z,15.80
2022-10-20T00:12:36.229Z,15.79
2022-10-20T00:15:03.868Z,15.76
2022-10-20T00:17:30.736Z,15.72
2022-10-20T00:19:58.317Z,15.70
2022-10-20T00:22:25.145Z,15.67
2022-10-20T00:24:52.347Z,15.63
2022-10-20T00:27:19.188Z,15.62
2022-10-20T00:29:48.054Z,15.62
2022-10-20T00:32:14.948Z,15.60
2022-10-20T00:34:41.828Z,15.58
2022-10-20T00:37:08.658Z,15.47
2022-10-20T00:39:35.568Z,15.56
2022-10-20T00:42:03.471Z,15.39
2022-10-20T00:44:51.303Z,15.49
2022-10-20T00:47:25.685Z,15.44
2022-10-20T00:49:52.563Z,15.39
2022-10-20T00:52:20.619Z,15.36
2022-10-20T00:54:47.466Z,15.34
2022-10-20T00:57:14.392Z,15.32
2022-10-20T00:59:41.214Z,15.29
2022-10-20T01:02:08.305Z,15.22
2022-10-20T01:04:35.251Z,15.20
2022-10-20T01:07:02.149Z,15.04
2022-10-20T01:09:28.977Z,15.18
2022-10-20T01:12:07.338Z,15.16
2022-10-20T01:14:53.635Z,15.13
2022-10-20T01:17:35.939Z,15.09
2022-10-20T01:20:11.848Z,15.05
2022-10-20T01:22:41.419Z,15.01
2022-10-20T01:25:31.082Z,14.99
2022-10-20T01:28:04.334Z,14.84
2022-10-20T01:30:32.715Z,14.90
2022-10-20T01:33:07.747Z,14.93
2022-10-20T01:36:05.431Z,14.94
2022-10-20T01:38:46.972Z,14.91
2022-10-20T01:41:27.220Z,14.89
2022-10-20T01:43:54.111Z,14.84
2022-10-20T01:46:22.296Z,14.80
2022-10-20T01:48:49.941Z,14.78
2022-10-20T01:51:16.838Z,14.76
2022-10-20T01:53:43.666Z,14.74
2022-10-20T01:56:16.194Z,14.72
2022-10-20T01:59:04.671Z,14.68
2022-10-20T02:01:40.444Z,14.66
2022-10-20T02:04:07.353Z,14.63
2022-10-20T02:06:47.765Z,14.60
2022-10-20T02:09:34.324Z,14.73
2022-10-20T02:14:51.877Z,14.88
2022-10-20T02:17:18.739Z,14.90
2022-10-20T02:19:45.646Z,14.87
2022-10-20T02:22:13.790Z,14.94
2022-10-20T02:24:42.742Z,15.05
2022-10-20T02:27:30.728Z,15.13
2022-10-20T02:29:59.784Z,15.14
2022-10-20T02:32:27.205Z,15.14
2022-10-20T02:34:54.023Z,15.14
2022-10-20T02:37:21.079Z,15.22
2022-10-20T02:39:47.935Z,15.30
2022-10-20T02:42:17.138Z,15.35
2022-10-20T02:44:44.086Z,15.38
2022-10-20T02:47:10.931Z,15.35
2022-10-20T02:49:37.776Z,15.36
2022-10-20T02:52:04.643Z,15.44
2022-10-20T02:54:31.460Z,15.52
2022-10-20T02:56:58.267Z,15.55
2022-10-20T02:59:25.251Z,15.46
2022-10-20T03:01:52.718Z,15.51
2022-10-20T03:04:19.694Z,15.55
2022-10-20T03:06:46.693Z,15.62
2022-10-20T03:09:13.641Z,15.65
2022-10-20T03:11:40.469Z,15.66
2022-10-20T03:14:07.354Z,15.64
2022-10-20T03:16:34.252Z,15.56
2022-10-20T03:19:03.971Z,15.60
2022-10-20T03:21:34.258Z,15.68
2022-10-20T03:24:01.202Z,15.78
2022-10-20T03:26:28.046Z,15.68
2022-10-20T03:28:55.143Z,15.79
2022-10-20T03:31:21.971Z,15.78
2022-10-20T03:33:48.817Z,15.80
2022-10-20T03:36:15.671Z,15.88
2022-10-20T03:38:43.218Z,15.92
2022-10-20T03:41:10.501Z,15.92
2022-10-20T03:43:39.242Z,15.84
2022-10-20T03:46:07.969Z,15.85
2022-10-20T03:48:35.297Z,15.84
2022-10-20T03:51:02.419Z,15.93
2022-10-20T03:53:29.460Z,15.99
2022-10-20T03:55:56.323Z,15.98
2022-10-20T03:58:23.239Z,15.87
2022-10-20T04:00:50.188Z,15.62
2022-10-20T04:03:17.060Z,15.56
2022-10-20T04:05:43.942Z,15.61
2022-10-20T04:08:10.824Z,15.71
2022-10-20T04:10:37.679Z,15.88
2022-10-20T04:13:04.621Z,15.84
2022-10-20T04:15:31.634Z,16.12
2022-10-20T04:17:58.930Z,16.23
2022-10-20T04:20:26.052Z,16.36
2022-10-20T04:22:52.959Z,16.53
2022-10-20T04:25:19.877Z,16.65
2022-10-20T04:27:46.848Z,16.95
2022-10-20T04:30:13.913Z,17.18
2022-10-20T04:32:41.068Z,17.38
2022-10-20T04:35:08.662Z,17.59
2022-10-20T04:37:35.977Z,17.76
2022-10-20T04:40:03.667Z,17.82
2022-10-20T04:42:30.722Z,18.06
2022-10-20T04:47:34.257Z,18.62
2022-10-20T04:50:01.633Z,18.37
2022-10-20T04:52:29.496Z,17.62
2022-10-20T04:54:56.696Z,16.77
2022-10-20T04:57:23.785Z,15.96
2022-10-20T04:59:50.765Z,15.89
2022-10-20T05:02:18.164Z,15.99
2022-10-20T05:04:45.267Z,16.31
2022-10-20T05:07:12.365Z,16.74
2022-10-20T05:09:39.379Z,17.55
2022-10-20T05:12:06.373Z,18.14
2022-10-20T05:14:33.568Z,18.70
2022-10-20T05:17:00.547Z,19.23
2022-10-20T05:19:27.447Z,19.68
2022-10-20T05:21:54.334Z,19.94
2022-10-20T05:24:22.834Z,20.51
2022-10-20T05:26:50.542Z,20.37
2022-10-20T05:29:17.548Z,20.49
2022-10-20T05:31:44.704Z,20.65
2022-10-20T05:34:11.958Z,20.90
2022-10-20T05:36:39.346Z,21.29
2022-10-20T05:39:06.396Z,21.55
2022-10-20T05:41:37.790Z,21.86
2022-10-20T05:44:06.997Z,21.93
2022-10-20T05:46:35.067Z,21.58
2022-10-20T05:49:02.768Z,20.28
2022-10-20T05:51:31.978Z,19.94
2022-10-20T05:53:59.396Z,20.60
2022-10-20T05:56:27.099Z,20.72
2022-10-20T05:58:54.195Z,20.98
2022-10-20T06:01:24.412Z,21.07
2022-10-20T06:03:55.111Z,21.00
2022-10-20T06:06:23.711Z,20.86
2022-10-20T06:08:51.050Z,20.20
2022-10-20T06:11:21.394Z,19.49
2022-10-20T06:13:51.777Z,19.50
2022-10-20T06:16:29.753Z,19.81
2022-10-20T06:18:59.673Z,20.19
2022-10-20T06:21:30.995Z,20.55
2022-10-20T06:23:59.252Z,20.73
2022-10-20T06:26:30.001Z,21.08
2022-10-20T06:29:02.741Z,21.23
2022-10-20T06:31:32.680Z,21.48
2022-10-20T06:33:59.749Z,21.84
2022-10-20T06:36:26.892Z,22.18
2022-10-20T06:38:58.107Z,22.53
2022-10-20T06:41:25.717Z,22.83
2022-10-20T06:43:58.122Z,22.85
2022-10-20T06:46:25.223Z,22.96
2022-10-20T06:48:56.289Z,23.21
2022-10-20T06:51:25.725Z,23.54
2022-10-20T06:53:52.789Z,23.90
2022-10-20T06:56:21.345Z,24.18
2022-10-20T06:58:49.019Z,24.50
2022-10-20T07:01:20.545Z,24.80
2022-10-20T07:03:47.838Z,25.07
2022-10-20T07:06:24.772Z,25.16
2022-10-20T07:08:53.846Z,25.51
2022-10-20T07:11:21.755Z,25.78
2022-10-20T07:13:49.456Z,25.81
2022-10-20T07:16:18.477Z,26.15
2022-10-20T07:18:45.431Z,26.46
2022-10-20T07:21:14.013Z,26.67
2022-10-20T07:23:41.251Z,26.77
2022-10-20T07:26:15.011Z,27.08
2022-10-20T07:28:43.081Z,27.23
2022-10-20T07:31:12.263Z,27.40
2022-10-20T07:33:39.240Z,26.74
2022-10-20T07:36:19.994Z,26.01
2022-10-20T07:38:47.572Z,26.08
2022-10-20T07:41:15.005Z,26.24
2022-10-20T07:43:42.082Z,26.58
2022-10-20T07:46:09.455Z,26.60
2022-10-20T07:48:36.417Z,26.77
2022-10-20T07:51:26.509Z,27.02
2022-10-20T07:53:59.756Z,27.19
2022-10-20T07:56:28.326Z,27.42
2022-10-20T07:58:55.348Z,26.91
2022-10-20T08:01:22.341Z,26.69
2022-10-20T08:03:51.789Z,26.91
2022-10-20T08:06:18.867Z,27.21
2022-10-20T08:08:45.844Z,27.55
2022-10-20T08:11:12.922Z,27.84
2022-10-20T08:13:41.111Z,28.09
2022-10-20T08:16:16.360Z,28.36
2022-10-20T08:18:59.800Z,28.21
2022-10-20T08:21:26.797Z,27.82
2022-10-20T08:23:53.779Z,28.00
2022-10-20T08:26:23.658Z,28.14
2022-10-20T08:28:51.094Z,28.40
2022-10-20T08:31:18.078Z,28.70
2022-10-20T08:33:48.823Z,28.96
2022-10-20T08:36:18.570Z,29.21
2022-10-20T08:38:45.514Z,29.48
2022-10-20T08:41:23.405Z,29.75
2022-10-20T08:43:51.442Z,29.97
2022-10-20T08:46:19.906Z,29.97
2022-10-20T08:48:47.036Z,29.90
2022-10-20T08:51:21.684Z,30.03
2022-10-20T08:53:49.984Z,29.99
2022-10-20T08:56:16.920Z,30.34
2022-10-20T08:58:44.497Z,30.46
2022-10-20T09:01:33.158Z,30.39
2022-10-20T09:04:06.711Z,30.20
2022-10-20T09:06:33.661Z,30.01
2022-10-20T09:09:00.617Z,29.77
2022-10-20T09:11:32.950Z,29.68
2022-10-20T09:13:59.883Z,29.12
2022-10-20T09:16:41.978Z,28.59
2022-10-20T09:19:20.167Z,28.31
2022-10-20T09:21:50.755Z,28.20
2022-10-20T09:24:17.613Z,28.12
2022-10-20T09:26:58.011Z,27.96
2022-10-20T09:29:35.704Z,27.94
2022-10-20T09:32:16.783Z,27.77
2022-10-20T09:34:49.811Z,27.73
2022-10-20T09:37:19.291Z,27.49
2022-10-20T09:39:55.689Z,27.43
2022-10-20T09:42:30.678Z,27.29
2022-10-20T09:45:01.562Z,27.11
2022-10-20T09:47:28.717Z,26.98
2022-10-20T09:50:01.325Z,26.89
2022-10-20T09:52:35.119Z,26.38
2022-10-20T09:55:05.199Z,26.61
2022-10-20T09:57:32.140Z,26.53
2022-10-20T10:00:04.660Z,26.45
2022-10-20T10:02:40.516Z,26.37
2022-10-20T10:05:19.963Z,26.30
2022-10-20T10:07:57.526Z,26.23
2022-10-20T10:10:26.129Z,26.02
2022-10-20T10:12:57.701Z,26.08
2022-10-20T10:15:35.099Z,26.05
2022-10-20T10:18:12.173Z,25.87
2022-10-20T10:20:39.202Z,25.94
2022-10-20T10:23:22.319Z,25.91
2022-10-20T10:25:50.823Z,25.86
2022-10-20T10:31:13.794Z,25.80
2022-10-20T10:33:40.821Z,25.79
2022-10-20T10:36:13.229Z,25.53
2022-10-20T10:38:40.141Z,25.76
2022-10-20T10:41:17.643Z,25.46
2022-10-20T10:44:23.299Z,24.92
2022-10-20T10:47:08.142Z,24.54
2022-10-20T10:49:53.557Z,24.03
2022-10-20T10:52:55.556Z,23.73
2022-10-20T10:55:47.409Z,23.58
2022-10-20T10:58:41.456Z,23.43
2022-10-20T11:01:33.993Z,23.27
2022-10-20T11:04:15.929Z,23.07
2022-10-20T11:06:55.536Z,22.91
2022-10-20T11:09:32.469Z,22.78
2022-10-20T11:12:30.343Z,22.66
2022-10-20T11:15:21.516Z,22.72
2022-10-20T11:17:57.472Z,22.77
2022-10-20T11:20:27.143Z,22.70
2022-10-20T11:22:59.950Z,22.76
2022-10-20T11:25:52.387Z,23.09
2022-10-20T11:28:44.536Z,23.58
2022-10-20T11:31:29.733Z,24.11
2022-10-20T11:34:20.794Z,24.24
2022-10-20T11:36:50.145Z,23.30
2022-10-20T11:39:43.133Z,22.42
2022-10-20T11:42:21.046Z,21.73
2022-10-20T11:44:48.071Z,20.93
2022-10-20T11:47:36.653Z,20.88
2022-10-20T11:50:05.830Z,20.39
2022-10-20T11:52:47.882Z,20.02
2022-10-20T11:55:26.616Z,19.90
2022-10-20T11:58:08.441Z,19.64
2022-10-20T12:00:38.141Z,19.45
2022-10-20T12:03:10.915Z,19.11
2022-10-20T12:05:59.499Z,18.77
2022-10-20T12:09:03.020Z,18.69
2022-10-20T12:11:39.430Z,18.18
2022-10-20T12:14:15.067Z,18.53
2022-10-20T12:16:54.174Z,18.60
2022-10-20T12:19:34.345Z,18.65
2022-10-20T12:22:13.605Z,18.88
2022-10-20T12:24:52.492Z,19.19
2022-10-20T12:27:23.560Z,19.29
2022-10-20T12:29:55.440Z,19.63
2022-10-20T12:32:24.365Z,19.82
2022-10-20T12:35:23.931Z,20.01
2022-10-20T12:38:02.389Z,20.14
2022-10-20T12:40:55.166Z,20.26
2022-10-20T12:43:51.485Z,20.41
2022-10-20T12:46:23.483Z,20.55
2022-10-20T12:48:56.702Z,20.65
2022-10-20T12:51:43.881Z,20.75
2022-10-20T12:54:25.537Z,20.83
2022-10-20T12:56:52.804Z,20.90
2022-10-20T12:59:28.744Z,20.97
2022-10-20T13:02:10.775Z,21.05
2022-10-20T13:05:00.198Z,21.18
2022-10-20T13:07:47.933Z,21.17
2022-10-20T13:10:26.823Z,21.22
2022-10-20T13:12:54.400Z,21.22
2022-10-20T13:15:21.845Z,21.21
2022-10-20T13:17:53.022Z,21.26
2022-10-20T13:20:44.995Z,21.32
2022-10-20T13:23:22.679Z,21.16
2022-10-20T13:25:53.687Z,21.12
2022-10-20T13:28:23.889Z,21.17
2022-10-20T13:31:02.400Z,21.09
2022-10-20T13:34:02.117Z,21.16
2022-10-20T13:36:34.572Z,21.32
2022-10-20T13:39:15.446Z,21.44
2022-10-20T13:41:50.906Z,21.56
2022-10-20T13:44:48.835Z,21.53
2022-10-20T13:47:48.358Z,21.72
2022-10-20T13:50:22.633Z,21.80
2022-10-20T13:52:55.186Z,21.85
2022-10-20T13:55:23.864Z,21.89
2022-10-20T13:57:58.458Z,21.92
2022-10-20T14:00:29.936Z,21.96
2022-10-20T14:03:04.821Z,21.92
2022-10-20T14:05:40.536Z,22.05
2022-10-20T14:08:11.123Z,22.07
2022-10-20T14:10:47.377Z,22.10
2022-10-20T14:13:16.174Z,22.12
2022-10-20T14:15:46.667Z,22.15
2022-10-20T14:18:28.109Z,22.19
2022-10-20T14:21:05.899Z,22.17
2022-10-20T14:23:38.021Z,22.20
2022-10-20T14:26:07.419Z,22.21
2022-10-20T14:28:35.487Z,22.22
2022-10-20T14:31:02.465Z,22.24
2022-10-20T14:33:29.852Z,22.25
2022-10-20T14:35:57.924Z,22.24
2022-10-20T14:38:30.296Z,22.22
2022-10-20T14:40:57.891Z,22.21
2022-10-20T14:43:43.554Z,22.18
2022-10-20T14:46:11.620Z,22.17
2022-10-20T14:48:45.890Z,22.08
2022-10-20T14:51:40.343Z,22.18
2022-10-20T14:54:23.519Z,22.16
2022-10-20T14:56:52.528Z,22.15
2022-10-20T14:59:27.088Z,22.14
2022-10-20T15:02:04.951Z,22.13
2022-10-20T15:04:33.657Z,22.11
2022-10-20T15:07:26.865Z,22.09
2022-10-20T15:10:05.852Z,22.07
2022-10-20T15:12:38.504Z,22.01
2022-10-20T15:15:11.512Z,22.00
2022-10-20T15:17:42.013Z,21.97
2022-10-20T15:20:30.672Z,21.96
2022-10-20T15:22:58.200Z,21.91
2022-10-20T15:25:25.837Z,21.89
2022-10-20T15:27:52.776Z,21.87
2022-10-20T15:30:20.633Z,21.84
2022-10-20T15:32:47.823Z,21.81
2022-10-20T15:35:17.414Z,21.78
2022-10-20T15:37:44.496Z,21.55
2022-10-20T15:40:11.974Z,21.70
2022-10-20T15:42:39.127Z,21.65
2022-10-20T15:45:19.617Z,21.34
2022-10-20T15:47:46.600Z,21.58
2022-10-20T15:50:13.610Z,21.60
2022-10-20T15:52:40.676Z,21.57
2022-10-20T15:55:27.293Z,21.54
2022-10-20T15:57:54.531Z,21.50
2022-10-20T16:00:22.169Z,21.49
2022-10-20T16:02:49.475Z,21.45
2022-10-20T16:05:17.370Z,21.41
2022-10-20T16:07:44.238Z,21.38
2022-10-20T16:10:11.532Z,21.32
2022-10-20T16:12:38.866Z,21.26
2022-10-20T16:15:06.291Z,21.23
2022-10-20T16:17:33.377Z,21.20
2022-10-20T16:20:00.200Z,21.14
2022-10-20T16:22:27.008Z,21.08
2022-10-20T16:24:53.976Z,21.03
2022-10-20T16:27:20.804Z,20.94
2022-10-20T16:29:49.758Z,20.92
2022-10-20T16:32:16.749Z,20.77
2022-10-20T16:34:43.610Z,20.70
2022-10-20T16:37:10.549Z,20.65
2022-10-20T16:39:37.506Z,20.65
2022-10-20T16:42:04.347Z,20.60
2022-10-20T16:44:31.243Z,20.59
2022-10-20T16:46:58.124Z,20.56
2022-10-20T16:49:25.141Z,20.50
2022-10-20T16:51:52.027Z,20.47
2022-10-20T16:54:18.929Z,20.41
2022-10-20T16:56:45.980Z,20.38
2022-10-20T16:59:12.868Z,20.32
2022-10-20T17:01:39.815Z,20.27
2022-10-20T17:04:06.649Z,20.20
2022-10-20T17:06:33.469Z,20.16
2022-10-20T17:09:00.476Z,20.07
2022-10-20T17:11:29.039Z,20.02
2022-10-20T17:13:56.048Z,19.96
2022-10-20T17:16:27.685Z,19.80
2022-10-20T17:18:56.322Z,19.78
2022-10-20T17:21:23.147Z,19.78
2022-10-20T17:23:50.031Z,19.66
2022-10-20T17:26:18.610Z,19.59
2022-10-20T17:28:45.553Z,19.58
2022-10-20T17:31:14.261Z,19.48
2022-10-20T17:33:41.207Z,19.38
2022-10-20T17:36:08.351Z,19.37
2022-10-20T17:38:35.498Z,19.36
2022-10-20T17:41:06.581Z,19.31
2022-10-20T17:43:33.513Z,19.25
2022-10-20T17:46:13.631Z,19.03
2022-10-20T17:48:40.854Z,19.15
2022-10-20T17:51:10.450Z,19.01
2022-10-20T17:53:45.625Z,19.06
2022-10-20T17:56:20.049Z,19.04
2022-10-20T17:58:47.465Z,18.95
2022-10-20T18:01:15.384Z,18.86
2022-10-20T18:03:42.319Z,18.80
2022-10-20T18:06:14.135Z,18.74
2022-10-20T18:08:41.277Z,18.69
2022-10-20T18:11:12.369Z,18.66
2022-10-20T18:13:40.402Z,18.61
2022-10-20T18:16:08.425Z,18.54
2022-10-20T18:18:35.749Z,18.45
2022-10-20T18:21:02.734Z,18.42
2022-10-20T18:23:31.160Z,18.37
2022-10-20T18:25:58.079Z,18.33
2022-10-20T18:28:25.200Z,18.22
2022-10-20T18:30:52.055Z,18.24
2022-10-20T18:33:19.137Z,18.15
2022-10-20T18:35:46.010Z,18.15
2022-10-20T18:38:12.916Z,18.12
2022-10-20T18:40:39.729Z,18.07
2022-10-20T18:43:06.591Z,18.04
2022-10-20T18:45:33.517Z,18.00
2022-10-20T18:48:00.312Z,17.96
2022-10-20T18:50:27.167Z,17.89
2022-10-20T18:52:54.633Z,17.82
2022-10-20T18:55:21.471Z,17.76
2022-10-20T18:57:48.314Z,17.70
2022-10-20T19:00:15.298Z,17.64
2022-10-20T19:02:42.207Z,17.61
2022-10-20T19:05:09.514Z,17.57
2022-10-20T19:07:36.623Z,17.50
2022-10-20T19:10:03.812Z,17.48
2022-10-20T19:12:30.661Z,17.43
2022-10-20T19:14:57.491Z,17.37
2022-10-20T19:17:24.337Z,17.32
2022-10-20T19:19:53.207Z,17.27
2022-10-20T19:22:20.338Z,17.21
2022-10-20T19:24:47.224Z,17.16
2022-10-20T19:27:26.081Z,17.12
2022-10-20T19:29:55.832Z,17.08
2022-10-20T19:32:22.694Z,17.06
2022-10-20T19:34:49.598Z,17.02
2022-10-20T19:37:16.426Z,16.97
2022-10-20T19:39:43.319Z,16.96
2022-10-20T19:42:10.305Z,16.91
2022-10-20T19:44:37.331Z,16.88
2022-10-20T19:47:05.075Z,16.85
2022-10-20T19:49:32.128Z,16.82
2022-10-20T19:51:58.960Z,16.77
2022-10-20T19:54:26.056Z,16.73
2022-10-20T19:56:52.875Z,16.68
2022-10-20T19:59:19.765Z,16.64
2022-10-20T20:01:48.728Z,16.56
2022-10-20T20:04:15.778Z,16.51
2022-10-20T20:06:42.620Z,16.47
2022-10-20T20:09:09.858Z,16.42
2022-10-20T20:11:37.672Z,16.35
2022-10-20T20:14:08.514Z,16.30
2022-10-20T20:16:35.458Z,16.23
2022-10-20T20:19:02.571Z,16.18
2022-10-20T20:21:29.560Z,16.12
2022-10-20T20:24:00.067Z,16.08
2022-10-20T20:26:45.212Z,16.03
2022-10-20T20:29:12.131Z,15.96
2022-10-20T20:31:38.954Z,15.88
2022-10-20T20:34:05.778Z,15.82
2022-10-20T20:36:32.699Z,15.74
2022-10-20T20:39:00.011Z,15.68
2022-10-20T20:41:28.159Z,15.67
2022-10-20T20:43:55.043Z,15.64
2022-10-20T20:46:22.692Z,15.63
2022-10-20T20:48:49.635Z,15.61
2022-10-20T20:51:16.615Z,15.60
2022-10-20T20:53:43.528Z,15.56
2022-10-20T20:56:12.070Z,15.54
2022-10-20T20:58:40.641Z,15.52
2022-10-20T21:01:24.960Z,15.47
2022-10-20T21:03:55.772Z,15.42
2022-10-20T21:06:28.773Z,15.40
2022-10-20T21:09:01.067Z,15.37
2022-10-20T21:11:28.068Z,15.33
2022-10-20T21:13:55.515Z,15.31
2022-10-20T21:16:25.512Z,15.27
2022-10-20T21:18:53.556Z,15.25
2022-10-20T21:21:24.866Z,15.21
2022-10-20T21:23:51.953Z,15.17
2022-10-20T21:26:19.445Z,14.99
2022-10-20T21:28:46.432Z,15.09
2022-10-20T21:31:15.121Z,15.05
2022-10-20T21:33:42.139Z,15.00
2022-10-20T21:36:10.717Z,14.95
2022-10-20T21:38:38.121Z,14.89
2022-10-20T21:41:05.931Z,14.85
2022-10-20T21:43:33.103Z,14.76
2022-10-20T21:46:15.892Z,14.74
2022-10-20T21:48:43.145Z,14.64
2022-10-20T21:51:17.410Z,14.60
2022-10-20T21:53:44.302Z,14.55
2022-10-20T21:56:11.423Z,14.48
2022-10-20T21:58:38.451Z,14.41
2022-10-20T22:01:18.791Z,14.36
2022-10-20T22:03:46.123Z,14.27
2022-10-20T22:06:13.803Z,14.24
2022-10-20T22:08:42.213Z,14.19
2022-10-20T22:11:11.570Z,14.13
2022-10-20T22:13:38.437Z,13.99
2022-10-20T22:16:06.493Z,14.05
2022-10-20T22:18:33.409Z,14.01
2022-10-20T22:21:11.103Z,13.99
2022-10-20T22:23:40.659Z,13.99
2022-10-20T22:26:07.492Z,13.99
2022-10-20T22:28:34.319Z,13.98
2022-10-20T22:33:33.091Z,13.93
2022-10-20T22:35:59.885Z,13.90
2022-10-20T22:38:26.774Z,13.87
2022-10-20T22:40:58.577Z,13.82
2022-10-20T22:43:25.769Z,13.78
2022-10-20T22:45:52.676Z,13.71
2022-10-20T22:48:19.602Z,13.70
2022-10-20T22:50:46.459Z,13.64
2022-10-20T22:53:13.375Z,13.58
2022-10-20T22:55:40.216Z,13.53
2022-10-20T22:58:07.054Z,13.47
2022-10-20T23:00:34.114Z,13.40
2022-10-20T23:03:01.067Z,13.38
2022-10-20T23:05:27.863Z,13.21
2022-10-20T23:07:54.829Z,13.31
2022-10-20T23:10:21.663Z,13.26
2022-10-20T23:12:48.524Z,13.23
2022-10-20T23:15:15.504Z,13.18
2022-10-20T23:17:42.329Z,13.10
2022-10-20T23:20:09.656Z,13.13
2022-10-20T23:22:36.494Z,13.11
2022-10-20T23:25:03.475Z,13.12
2022-10-20T23:27:33.089Z,13.01
2022-10-20T23:29:59.985Z,13.07
2022-10-20T23:32:26.814Z,13.10
2022-10-20T23:34:53.805Z,13.09
2022-10-20T23:37:21.854Z,13.03
2022-10-20T23:39:48.680Z,12.98
2022-10-20T23:42:15.499Z,12.94
2022-10-20T23:44:43.110Z,12.90
2022-10-20T23:47:10.086Z,12.69
2022-10-20T23:49:36.973Z,12.83
2022-10-20T23:52:03.819Z,12.78
2022-10-20T23:54:30.633Z,12.73
2022-10-20T23:56:57.548Z,12.70
2022-10-20T23:59:24.409Z,12.66
